Time;durP1;ratioP1;P1;durP2;ratioP2;P2;SDS_P1;SDS_P2;PMS_P1;PMS_P2;Temp;Humidity;BMP_temperature;BMP_pressure;BME280_temperature;BME280_humidity;BME280_pressure;Samples;Min_cycle;Max_cycle;Signal;HPM_P1;HPM_P2
2022/10/18 00:00:57;;;;;;;13.50;9.30;;;14.30;99.90;;;;;;5025088;28;20042;-71
2022/10/18 00:03:25;;;;;;;13.07;8.23;;;14.30;99.90;;;;;;5020894;28;20485;-71
2022/10/18 00:05:52;;;;;;;13.18;8.88;;;14.20;99.90;;;;;;5034354;28;20087;-72
2022/10/18 00:08:20;;;;;;;21.92;10.18;;;14.20;99.90;;;;;;5034876;28;20095;-71
2022/10/18 00:10:48;;;;;;;15.98;8.30;;;14.20;99.90;;;;;;5041976;28;20487;-71
2022/10/18 00:13:15;;;;;;;14.13;8.45;;;14.10;99.90;;;;;;5013241;28;20049;-71
2022/10/18 00:15:51;;;;;;;16.88;9.05;;;14.10;99.90;;;;;;5018846;28;20480;-71
2022/10/18 00:18:19;;;;;;;12.18;8.60;;;14.10;99.90;;;;;;5018212;28;20550;-71
2022/10/18 00:21:03;;;;;;;12.65;8.93;;;14.10;99.90;;;;;;5021685;28;20045;-72
2022/10/18 00:23:32;;;;;;;12.32;8.50;;;14.10;99.90;;;;;;5021893;28;20054;-71
2022/10/18 00:25:59;;;;;;;15.73;9.02;;;14.10;99.90;;;;;;5013953;28;20122;-72
2022/10/18 00:28:27;;;;;;;14.15;8.63;;;14.10;99.90;;;;;;5004375;28;20060;-72
2022/10/18 00:30:54;;;;;;;13.38;8.70;;;14.10;99.90;;;;;;5015462;28;20461;-72
2022/10/18 00:33:22;;;;;;;16.17;8.90;;;14.10;99.90;;;;;;5042208;28;20052;-72
2022/10/18 00:35:49;;;;;;;20.73;9.02;;;14.00;99.90;;;;;;5030841;28;20040;-72
2022/10/18 00:38:16;;;;;;;12.05;8.35;;;14.00;99.90;;;;;;5047682;28;20045;-72
2022/10/18 00:40:44;;;;;;;17.58;8.57;;;14.00;99.90;;;;;;5045956;28;20439;-72
2022/10/18 00:43:14;;;;;;;12.93;8.70;;;14.00;99.90;;;;;;5051435;28;20448;-72
2022/10/18 00:45:42;;;;;;;17.25;8.70;;;14.00;99.90;;;;;;5036310;28;20045;-72
2022/10/18 00:48:12;;;;;;;14.40;8.85;;;13.90;99.90;;;;;;5036656;28;20514;-72
2022/10/18 00:50:41;;;;;;;16.70;9.02;;;13.90;99.90;;;;;;5036257;28;20075;-72
2022/10/18 00:53:14;;;;;;;16.20;8.32;;;13.90;99.90;;;;;;5020755;28;20063;-72
2022/10/18 00:55:41;;;;;;;16.58;8.68;;;13.90;99.90;;;;;;5024458;28;20034;-72
2022/10/18 00:58:16;;;;;;;15.63;8.95;;;13.90;99.90;;;;;;5023391;28;20148;-72
2022/10/18 01:00:44;;;;;;;11.63;8.02;;;13.90;99.90;;;;;;5007428;28;20050;-72
2022/10/18 01:03:11;;;;;;;14.95;8.48;;;13.90;99.90;;;;;;5028384;28;20041;-71
2022/10/18 01:05:44;;;;;;;15.18;8.68;;;13.90;99.90;;;;;;5010066;28;20062;-71
2022/10/18 01:08:30;;;;;;;14.52;8.45;;;13.80;99.90;;;;;;5025086;28;20046;-70
2022/10/18 01:11:17;;;;;;;13.75;8.70;;;13.80;99.90;;;;;;5011735;28;20447;-70
2022/10/18 01:13:54;;;;;;;11.00;8.55;;;13.80;99.90;;;;;;5011485;28;20061;-73
2022/10/18 01:16:42;;;;;;;14.82;9.48;;;13.80;99.90;;;;;;5028532;28;20068;-71
2022/10/18 01:19:19;;;;;;;17.38;9.55;;;13.80;99.90;;;;;;5019825;28;20504;-71
2022/10/18 01:21:53;;;;;;;12.80;8.88;;;13.70;99.90;;;;;;5010039;28;20084;-71
2022/10/18 01:24:20;;;;;;;12.88;8.00;;;13.70;99.90;;;;;;5020593;28;20404;-72
2022/10/18 01:27:15;;;;;;;16.08;9.73;;;13.70;99.90;;;;;;5035418;28;20100;-71
2022/10/18 01:29:57;;;;;;;12.65;8.63;;;13.70;99.90;;;;;;5023688;28;20563;-71
2022/10/18 01:32:29;;;;;;;14.05;8.90;;;13.60;99.90;;;;;;5027326;28;20038;-71
2022/10/18 01:35:02;;;;;;;13.30;8.45;;;13.60;99.90;;;;;;5024136;28;20349;-72
2022/10/18 01:37:30;;;;;;;17.38;9.30;;;13.60;99.90;;;;;;5034451;28;20451;-71
2022/10/18 01:40:02;;;;;;;13.90;9.57;;;13.60;99.90;;;;;;5037885;28;20045;-71
2022/10/18 01:42:30;;;;;;;17.83;9.37;;;13.60;99.90;;;;;;5027859;28;20455;-72
2022/10/18 01:45:00;;;;;;;13.18;8.85;;;13.50;99.90;;;;;;5028547;28;20284;-71
2022/10/18 01:47:28;;;;;;;16.35;9.55;;;13.50;99.90;;;;;;5025717;28;20045;-71
2022/10/18 01:49:58;;;;;;;13.52;8.95;;;13.60;99.90;;;;;;5025710;28;20536;-71
2022/10/18 01:52:26;;;;;;;16.73;8.55;;;13.50;99.90;;;;;;5030079;28;20423;-71
2022/10/18 01:54:55;;;;;;;15.93;8.80;;;13.50;99.90;;;;;;5029309;28;20041;-70
2022/10/18 01:57:44;;;;;;;13.38;9.27;;;13.50;99.90;;;;;;5028096;28;20038;-71
2022/10/18 02:00:39;;;;;;;15.27;9.45;;;13.50;99.90;;;;;;5011511;28;20500;-71
2022/10/18 02:03:21;;;;;;;17.52;9.35;;;13.50;99.90;;;;;;5025121;28;20033;-71
2022/10/18 02:06:00;;;;;;;16.65;9.40;;;13.50;99.90;;;;;;5035756;28;20053;-71
2022/10/18 02:08:57;;;;;;;15.43;9.15;;;13.50;99.90;;;;;;5022131;28;20041;-71
2022/10/18 02:11:28;;;;;;;13.38;8.90;;;13.50;99.90;;;;;;5021132;28;20535;-71
2022/10/18 02:14:17;;;;;;;14.88;9.10;;;13.50;99.90;;;;;;5014245;28;20064;-71
2022/10/18 02:16:49;;;;;;;17.77;8.93;;;13.50;99.90;;;;;;5028166;28;20037;-71
2022/10/18 02:19:29;;;;;;;14.68;9.00;;;13.50;99.90;;;;;;5022441;28;20116;-71
2022/10/18 02:21:58;;;;;;;14.75;8.60;;;13.50;99.90;;;;;;5026371;28;20042;-70
2022/10/18 02:24:32;;;;;;;14.60;9.02;;;13.40;99.90;;;;;;5028085;28;20053;-71
2022/10/18 02:27:00;;;;;;;13.70;9.13;;;13.40;99.90;;;;;;5024796;28;20557;-71
2022/10/18 02:29:28;;;;;;;15.35;9.65;;;13.40;99.90;;;;;;5027373;28;20049;-71
2022/10/18 02:32:18;;;;;;;14.45;9.23;;;13.40;99.90;;;;;;5026587;28;20049;-71
2022/10/18 02:34:56;;;;;;;13.85;9.38;;;13.40;99.90;;;;;;5026270;28;20052;-71
2022/10/18 02:37:29;;;;;;;14.48;9.70;;;13.40;99.90;;;;;;5031066;28;20037;-71
2022/10/18 02:39:57;;;;;;;13.57;8.70;;;13.40;99.90;;;;;;5029535;28;20057;-71
2022/10/18 02:42:24;;;;;;;12.18;8.85;;;13.40;99.90;;;;;;5011127;28;20107;-71
2022/10/18 02:44:51;;;;;;;15.13;9.23;;;13.40;99.90;;;;;;5005356;28;20088;-71
2022/10/18 02:47:19;;;;;;;16.58;9.20;;;13.40;99.90;;;;;;5021134;28;20508;-70
2022/10/18 02:49:46;;;;;;;18.75;9.88;;;13.40;99.90;;;;;;5028155;28;20095;-73
2022/10/18 02:52:13;;;;;;;18.85;9.68;;;13.40;99.90;;;;;;5029747;28;20519;-71
2022/10/18 02:54:40;;;;;;;13.55;9.27;;;13.40;99.90;;;;;;5027316;28;20049;-71
2022/10/18 02:57:07;;;;;;;19.15;9.23;;;13.40;99.90;;;;;;5026304;28;20033;-71
2022/10/18 02:59:35;;;;;;;17.08;9.20;;;13.30;99.90;;;;;;5027149;28;20034;-71
2022/10/18 03:02:02;;;;;;;12.27;9.05;;;13.30;99.90;;;;;;5028232;28;20125;-71
2022/10/18 03:04:29;;;;;;;15.23;8.98;;;13.30;99.90;;;;;;5028069;28;20038;-71
2022/10/18 03:06:57;;;;;;;12.52;8.02;;;13.30;99.90;;;;;;5012786;28;20054;-71
2022/10/18 03:09:24;;;;;;;12.07;8.00;;;13.30;99.90;;;;;;5027651;28;20085;-71
2022/10/18 03:11:51;;;;;;;14.90;9.20;;;13.30;99.90;;;;;;5020869;28;20054;-70
2022/10/18 03:14:19;;;;;;;12.95;8.95;;;13.30;99.90;;;;;;5027832;28;20053;-72
2022/10/18 03:16:46;;;;;;;17.25;9.02;;;13.30;99.90;;;;;;5027361;28;20054;-71
2022/10/18 03:19:13;;;;;;;17.42;8.85;;;13.30;99.90;;;;;;5027681;28;20100;-71
2022/10/18 03:21:41;;;;;;;13.73;8.43;;;13.30;99.90;;;;;;5019538;28;20057;-71
2022/10/18 03:24:08;;;;;;;15.80;8.68;;;13.30;99.90;;;;;;5029267;28;20059;-72
2022/10/18 03:26:35;;;;;;;13.70;8.85;;;13.30;99.90;;;;;;5024416;28;20053;-70
2022/10/18 03:29:03;;;;;;;14.00;8.57;;;13.30;99.90;;;;;;5026668;28;20096;-71
2022/10/18 03:31:31;;;;;;;13.57;8.02;;;13.30;99.90;;;;;;5024906;28;20049;-71
2022/10/18 03:33:58;;;;;;;12.85;8.52;;;13.30;99.90;;;;;;5033769;28;20049;-71
2022/10/18 03:36:25;;;;;;;10.25;7.38;;;13.30;99.90;;;;;;5034619;28;20455;-71
2022/10/18 03:38:53;;;;;;;14.38;8.07;;;13.30;99.90;;;;;;5032152;28;20045;-71
2022/10/18 03:41:20;;;;;;;15.68;9.00;;;13.30;99.90;;;;;;5032011;28;20045;-71
2022/10/18 03:43:47;;;;;;;15.73;8.95;;;13.30;99.90;;;;;;5026114;28;20042;-71
2022/10/18 03:46:15;;;;;;;15.18;9.00;;;13.30;99.90;;;;;;5030476;28;20464;-71
2022/10/18 03:48:42;;;;;;;13.65;8.68;;;13.30;99.90;;;;;;5024774;28;20195;-71
2022/10/18 03:51:09;;;;;;;16.50;8.25;;;13.30;99.90;;;;;;5032171;28;20045;-71
2022/10/18 03:53:36;;;;;;;15.48;8.82;;;13.30;99.90;;;;;;5030003;28;20464;-71
2022/10/18 03:56:04;;;;;;;11.02;7.93;;;13.30;99.90;;;;;;5030700;28;20073;-72
2022/10/18 03:58:31;;;;;;;14.98;8.45;;;13.30;99.90;;;;;;5029133;28;20056;-71
2022/10/18 04:01:00;;;;;;;16.13;8.50;;;13.30;99.90;;;;;;5030429;28;20052;-71
2022/10/18 04:03:27;;;;;;;15.25;9.55;;;13.30;99.90;;;;;;5022846;28;20384;-72
2022/10/18 04:05:54;;;;;;;13.23;8.73;;;13.30;99.90;;;;;;5021531;28;20042;-72
2022/10/18 04:08:21;;;;;;;12.77;9.18;;;13.30;99.90;;;;;;5029629;28;20045;-71
2022/10/18 04:10:49;;;;;;;13.35;9.32;;;13.30;99.90;;;;;;5030183;28;20507;-71
2022/10/18 04:13:17;;;;;;;17.55;9.13;;;13.40;99.90;;;;;;5029969;28;20044;-72
2022/10/18 04:15:44;;;;;;;12.32;8.65;;;13.40;99.90;;;;;;5029423;28;20045;-71
2022/10/18 04:18:12;;;;;;;14.02;8.73;;;13.40;99.90;;;;;;5027456;28;20511;-72
2022/10/18 04:20:39;;;;;;;16.75;9.23;;;13.40;99.90;;;;;;5030171;28;20045;-72
2022/10/18 04:23:06;;;;;;;15.40;9.07;;;13.50;99.90;;;;;;5021029;28;20497;-72
2022/10/18 04:25:33;;;;;;;17.05;9.63;;;13.50;99.90;;;;;;5021838;28;20041;-71
2022/10/18 04:28:03;;;;;;;16.90;9.30;;;13.50;99.90;;;;;;5010423;28;20550;-71
2022/10/18 04:30:30;;;;;;;19.23;9.73;;;13.50;99.90;;;;;;5024478;28;20040;-72
2022/10/18 04:32:58;;;;;;;20.70;10.43;;;13.50;99.90;;;;;;5046478;28;20075;-72
2022/10/18 04:35:27;;;;;;;20.50;9.52;;;13.50;99.90;;;;;;5044095;28;20510;-71
2022/10/18 04:37:54;;;;;;;18.35;10.05;;;13.60;99.90;;;;;;5028018;28;20400;-71
2022/10/18 04:40:21;;;;;;;21.98;10.07;;;13.60;99.90;;;;;;4991113;28;20423;-72
2022/10/18 04:42:48;;;;;;;14.95;10.43;;;13.60;99.90;;;;;;5029283;28;20486;-72
2022/10/18 04:45:16;;;;;;;26.35;9.85;;;13.60;99.90;;;;;;5026821;28;20411;-72
2022/10/18 04:47:43;;;;;;;15.25;8.77;;;13.60;99.90;;;;;;5038774;28;20571;-72
2022/10/18 04:50:10;;;;;;;17.73;9.27;;;13.60;99.90;;;;;;5030159;28;20054;-72
2022/10/18 04:52:38;;;;;;;14.52;9.05;;;13.60;99.90;;;;;;5028393;28;20044;-71
2022/10/18 04:55:05;;;;;;;16.17;9.13;;;13.70;99.90;;;;;;5024860;28;20572;-72
2022/10/18 04:57:33;;;;;;;12.35;8.30;;;13.70;99.90;;;;;;5018284;28;20061;-70
2022/10/18 05:00:01;;;;;;;12.00;8.52;;;13.70;99.90;;;;;;5012416;28;20146;-73
2022/10/18 05:02:28;;;;;;;12.57;8.25;;;13.70;99.90;;;;;;5013130;28;20508;-72
2022/10/18 05:04:56;;;;;;;13.50;8.70;;;13.70;99.90;;;;;;5016102;28;20461;-72
2022/10/18 05:07:23;;;;;;;13.75;8.23;;;13.70;99.90;;;;;;5022058;28;20049;-72
2022/10/18 05:09:50;;;;;;;12.82;9.00;;;13.70;99.90;;;;;;5028829;28;20041;-72
2022/10/18 05:12:18;;;;;;;16.42;8.15;;;13.70;99.90;;;;;;5012819;28;20144;-71
2022/10/18 05:14:45;;;;;;;15.25;7.85;;;13.70;99.90;;;;;;5032347;28;20050;-72
2022/10/18 05:17:13;;;;;;;13.07;8.25;;;13.80;99.90;;;;;;5011841;28;20092;-73
2022/10/18 05:19:40;;;;;;;14.80;8.27;;;13.70;99.90;;;;;;5010570;28;20425;-71
2022/10/18 05:22:07;;;;;;;11.85;7.78;;;13.70;99.90;;;;;;5010858;28;20038;-71
2022/10/18 05:24:34;;;;;;;14.23;8.73;;;13.70;99.90;;;;;;5022408;28;20092;-72
2022/10/18 05:27:02;;;;;;;15.50;8.93;;;13.80;99.90;;;;;;5021807;28;20476;-72
2022/10/18 05:29:29;;;;;;;16.88;8.48;;;13.70;99.90;;;;;;5012432;28;20069;-73
2022/10/18 05:31:56;;;;;;;14.10;8.55;;;13.80;99.90;;;;;;5017315;28;20109;-73
2022/10/18 05:34:26;;;;;;;18.08;10.25;;;13.80;99.90;;;;;;5035583;28;20075;-72
2022/10/18 05:36:53;;;;;;;14.60;9.27;;;13.70;99.90;;;;;;5038022;28;20120;-71
2022/10/18 05:39:20;;;;;;;15.40;8.82;;;13.70;99.90;;;;;;5010705;28;20046;-72
2022/10/18 05:41:48;;;;;;;14.30;9.18;;;13.80;99.90;;;;;;5004443;28;20053;-71
2022/10/18 05:44:15;;;;;;;18.65;8.68;;;13.70;99.90;;;;;;5034689;28;20507;-74
2022/10/18 05:46:42;;;;;;;14.52;7.93;;;13.80;99.90;;;;;;5022741;28;20083;-71
2022/10/18 05:49:11;;;;;;;13.70;8.77;;;13.80;99.90;;;;;;5010922;28;20049;-72
2022/10/18 05:51:39;;;;;;;14.30;8.68;;;13.80;99.90;;;;;;5014042;28;20042;-72
2022/10/18 05:54:06;;;;;;;12.00;8.60;;;13.80;99.90;;;;;;5009258;28;20141;-72
2022/10/18 05:56:33;;;;;;;14.20;8.65;;;13.80;99.90;;;;;;5028928;28;20049;-71
2022/10/18 05:59:03;;;;;;;12.27;8.35;;;13.80;99.90;;;;;;5009876;28;20096;-72
2022/10/18 06:01:31;;;;;;;17.85;9.20;;;13.80;99.90;;;;;;5026244;28;20393;-72
2022/10/18 06:03:58;;;;;;;14.00;7.60;;;13.80;99.90;;;;;;5028920;28;20381;-72
2022/10/18 06:06:25;;;;;;;15.07;8.80;;;13.80;99.90;;;;;;5026760;28;20037;-72
2022/10/18 06:08:53;;;;;;;15.65;8.68;;;13.90;99.90;;;;;;5017699;28;20128;-71
2022/10/18 06:11:20;;;;;;;16.77;9.55;;;13.90;99.90;;;;;;5029744;28;20047;-72
2022/10/18 06:13:50;;;;;;;17.13;9.10;;;13.90;99.90;;;;;;5005963;28;20052;-71
2022/10/18 06:16:20;;;;;;;18.02;8.90;;;14.00;99.90;;;;;;5018540;28;20065;-71
2022/10/18 06:18:49;;;;;;;18.35;10.40;;;14.10;99.90;;;;;;5022526;28;20095;-72
2022/10/18 06:21:16;;;;;;;17.13;9.30;;;14.20;99.90;;;;;;5010208;28;20041;-72
2022/10/18 06:23:49;;;;;;;15.98;9.63;;;14.20;99.90;;;;;;5006416;28;20130;-72
2022/10/18 06:26:19;;;;;;;12.68;8.85;;;14.20;99.90;;;;;;5027665;28;20041;-72
2022/10/18 06:28:46;;;;;;;17.58;9.73;;;14.30;99.90;;;;;;5023419;28;20042;-72
2022/10/18 06:31:14;;;;;;;19.80;8.60;;;14.30;99.90;;;;;;5027811;28;20096;-72
2022/10/18 06:33:41;;;;;;;14.65;9.05;;;14.40;99.90;;;;;;5027930;28;20045;-73
2022/10/18 06:36:14;;;;;;;12.80;7.70;;;14.40;99.90;;;;;;5029565;28;20132;-72
2022/10/18 06:38:42;;;;;;;18.52;8.35;;;14.50;99.90;;;;;;5029838;28;20051;-73
2022/10/18 06:41:09;;;;;;;15.18;8.40;;;14.50;99.90;;;;;;5042270;28;20048;-73
2022/10/18 06:43:37;;;;;;;18.98;8.70;;;14.50;99.90;;;;;;5040816;28;20494;-71
2022/10/18 06:46:06;;;;;;;14.93;7.90;;;14.60;99.90;;;;;;5044490;28;20100;-72
2022/10/18 06:48:37;;;;;;;14.25;7.38;;;14.60;99.90;;;;;;5008810;28;20212;-72
2022/10/18 06:51:06;;;;;;;18.77;9.27;;;14.70;99.90;;;;;;5043259;28;20458;-72
2022/10/18 06:53:36;;;;;;;16.15;7.95;;;14.70;99.90;;;;;;5022684;28;20467;-72
2022/10/18 06:56:14;;;;;;;16.67;8.07;;;14.80;99.90;;;;;;5045326;28;20063;-72
2022/10/18 06:58:42;;;;;;;10.95;8.18;;;14.80;99.90;;;;;;5041013;28;20128;-73
2022/10/18 07:01:11;;;;;;;15.88;8.00;;;14.80;99.90;;;;;;5021168;28;20038;-74
2022/10/18 07:03:39;;;;;;;11.50;7.85;;;14.90;99.90;;;;;;5017124;28;20037;-73
2022/10/18 07:06:09;;;;;;;15.48;8.48;;;15.00;99.90;;;;;;5026415;28;20065;-72
2022/10/18 07:08:37;;;;;;;14.38;8.38;;;15.00;99.90;;;;;;5033101;28;20504;-70
2022/10/18 07:11:05;;;;;;;15.32;8.57;;;15.10;99.90;;;;;;5030938;28;20061;-71
2022/10/18 07:13:33;;;;;;;17.75;9.30;;;15.10;99.90;;;;;;5032308;28;20473;-72
2022/10/18 07:16:07;;;;;;;23.00;8.55;;;15.20;99.90;;;;;;5031231;28;20480;-71
2022/10/18 07:18:42;;;;;;;18.30;9.18;;;15.30;99.90;;;;;;5032294;28;20108;-72
2022/10/18 07:21:15;;;;;;;16.40;9.03;;;15.30;99.90;;;;;;5047628;28;20143;-72
2022/10/18 07:23:46;;;;;;;15.50;7.97;;;15.40;99.90;;;;;;5010718;28;20077;-71
2022/10/18 07:26:27;;;;;;;16.88;8.32;;;15.40;99.90;;;;;;4999432;28;20073;-72
2022/10/18 07:28:59;;;;;;;13.57;8.48;;;15.50;99.90;;;;;;5028401;28;20055;-71
2022/10/18 07:31:27;;;;;;;13.55;8.27;;;15.50;99.90;;;;;;5032843;28;20042;-71
2022/10/18 07:33:55;;;;;;;16.25;9.02;;;15.50;99.90;;;;;;5030512;28;20484;-72
2022/10/18 07:36:23;;;;;;;19.50;8.98;;;15.60;99.90;;;;;;5038209;28;20045;-72
2022/10/18 07:38:51;;;;;;;14.38;8.20;;;15.60;99.90;;;;;;5021541;28;20417;-71
2022/10/18 07:41:19;;;;;;;16.08;8.48;;;15.70;99.90;;;;;;5027839;28;20383;-72
2022/10/18 07:43:49;;;;;;;16.90;8.02;;;15.80;99.90;;;;;;5017919;28;20054;-72
2022/10/18 07:46:18;;;;;;;15.48;8.50;;;15.90;99.90;;;;;;5028672;28;20107;-72
2022/10/18 07:48:46;;;;;;;14.38;7.97;;;15.90;99.90;;;;;;5021058;28;20188;-71
2022/10/18 07:51:13;;;;;;;16.17;8.70;;;15.90;99.90;;;;;;5029679;28;20404;-71
2022/10/18 07:53:41;;;;;;;14.68;7.30;;;16.00;99.90;;;;;;5004376;28;20058;-72
2022/10/18 07:56:14;;;;;;;18.00;8.80;;;16.10;99.90;;;;;;5029913;28;20045;-72
2022/10/18 07:58:51;;;;;;;15.82;8.63;;;16.20;99.90;;;;;;5030507;28;20361;-71
2022/10/18 08:01:21;;;;;;;14.75;8.07;;;16.30;99.90;;;;;;5041651;28;20045;-71
2022/10/18 08:03:50;;;;;;;13.52;8.00;;;16.40;99.90;;;;;;5028803;28;20848;-72
2022/10/18 08:06:18;;;;;;;12.60;7.57;;;16.50;99.90;;;;;;5028995;28;20051;-72
2022/10/18 08:08:47;;;;;;;13.43;8.88;;;16.50;99.90;;;;;;5031415;28;20380;-71
2022/10/18 08:11:20;;;;;;;12.75;7.95;;;16.60;99.90;;;;;;5012099;28;20511;-71
2022/10/18 08:13:48;;;;;;;18.23;8.50;;;16.50;99.90;;;;;;5031230;28;20143;-71
2022/10/18 08:16:22;;;;;;;13.50;8.45;;;16.50;99.90;;;;;;5010109;28;20076;-72
2022/10/18 08:18:50;;;;;;;13.88;8.43;;;16.60;99.90;;;;;;5025183;28;20033;-73
2022/10/18 08:21:19;;;;;;;13.30;8.80;;;16.80;99.90;;;;;;5031480;28;20042;-73
2022/10/18 08:23:46;;;;;;;15.35;8.95;;;16.90;99.90;;;;;;5024634;28;20471;-73
2022/10/18 08:26:17;;;;;;;18.70;8.55;;;17.10;99.90;;;;;;5012187;28;20514;-72
2022/10/18 08:28:45;;;;;;;17.85;8.70;;;17.10;99.90;;;;;;5024923;28;20045;-72
2022/10/18 08:31:24;;;;;;;11.55;7.85;;;17.20;99.90;;;;;;5029396;28;20102;-72
2022/10/18 08:33:55;;;;;;;11.63;8.05;;;17.30;99.90;;;;;;5030629;28;20396;-72
2022/10/18 08:36:22;;;;;;;14.35;8.68;;;17.40;99.90;;;;;;5029817;28;20528;-73
2022/10/18 08:38:50;;;;;;;14.05;8.63;;;17.50;99.90;;;;;;5026049;28;20519;-72
2022/10/18 08:41:45;;;;;;;18.38;8.25;;;17.60;99.90;;;;;;5030417;28;20041;-73
2022/10/18 08:44:29;;;;;;;15.60;8.35;;;17.70;99.90;;;;;;5023578;28;20511;-73
2022/10/18 08:47:09;;;;;;;14.20;8.00;;;17.80;99.90;;;;;;5029498;28;20045;-72
2022/10/18 08:49:45;;;;;;;11.32;7.72;;;17.90;99.90;;;;;;5031344;28;20071;-72
2022/10/18 08:52:22;;;;;;;12.07;7.88;;;18.10;99.90;;;;;;5028765;28;20048;-72
2022/10/18 08:55:14;;;;;;;13.20;7.07;;;18.10;99.90;;;;;;5021545;28;20048;-71
2022/10/18 08:57:42;;;;;;;10.57;6.82;;;18.30;99.90;;;;;;5028486;28;20124;-72
2022/10/18 09:00:33;;;;;;;13.88;6.78;;;18.50;99.90;;;;;;5028533;28;20115;-72
2022/10/18 09:03:15;;;;;;;15.10;7.13;;;18.80;99.90;;;;;;5029100;28;20397;-71
2022/10/18 09:05:54;;;;;;;12.63;6.25;;;19.00;99.90;;;;;;5020476;28;20053;-72
2022/10/18 09:08:37;;;;;;;14.65;6.25;;;19.20;99.90;;;;;;4994906;28;20053;-72
2022/10/18 09:11:45;;;;;;;11.82;6.50;;;19.50;99.90;;;;;;5030444;28;20046;-72
2022/10/18 09:14:49;;;;;;;10.25;5.88;;;19.40;99.90;;;;;;5046006;28;20081;-72
2022/10/18 09:17:28;;;;;;;11.55;6.25;;;19.40;99.90;;;;;;4996667;28;20073;-72
2022/10/18 09:20:27;;;;;;;12.85;5.80;;;19.50;99.90;;;;;;5035488;28;20055;-72
2022/10/18 09:23:24;;;;;;;12.25;5.43;;;19.80;99.90;;;;;;4996702;28;20504;-72
2022/10/18 09:26:02;;;;;;;12.50;6.00;;;20.00;99.90;;;;;;4986278;28;20041;-73
2022/10/18 09:28:37;;;;;;;10.20;5.38;;;20.20;99.90;;;;;;5031213;28;20045;-71
2022/10/18 09:31:26;;;;;;;11.50;6.22;;;20.40;99.90;;;;;;5025856;28;20144;-71
2022/10/18 09:34:03;;;;;;;10.40;5.60;;;20.60;99.90;;;;;;5010963;28;20038;-73
2022/10/18 09:36:36;;;;;;;10.10;6.22;;;20.80;99.90;;;;;;5021528;28;20083;-72
2022/10/18 09:39:15;;;;;;;11.15;5.40;;;21.00;99.90;;;;;;5028769;28;20483;-72
2022/10/18 09:41:57;;;;;;;9.35;5.38;;;21.00;99.90;;;;;;5028994;28;20136;-72
2022/10/18 09:44:34;;;;;;;10.35;5.25;;;21.10;99.90;;;;;;5028193;28;20061;-72
2022/10/18 09:47:09;;;;;;;11.23;5.63;;;21.00;99.90;;;;;;5024313;28;20099;-72
2022/10/18 09:49:47;;;;;;;10.05;6.07;;;21.20;99.90;;;;;;5011531;28;20047;-72
2022/10/18 09:52:34;;;;;;;10.43;5.45;;;21.30;99.90;;;;;;5026582;28;20042;-73
2022/10/18 09:55:15;;;;;;;11.00;5.85;;;21.50;99.90;;;;;;5028523;28;20042;-71
2022/10/18 09:57:47;;;;;;;11.95;5.25;;;21.50;99.90;;;;;;5028578;28;20041;-72
2022/10/18 10:00:21;;;;;;;8.77;5.68;;;21.90;99.90;;;;;;5026397;28;20103;-72
2022/10/18 10:02:48;;;;;;;8.65;5.82;;;22.20;99.90;;;;;;5029498;28;20432;-72
2022/10/18 10:05:16;;;;;;;8.55;5.47;;;22.40;99.90;;;;;;5023834;28;20448;-72
2022/10/18 10:07:47;;;;;;;9.98;5.70;;;22.50;99.90;;;;;;5023841;28;20092;-72
2022/10/18 10:10:29;;;;;;;9.25;6.18;;;22.80;99.90;;;;;;5029022;28;20045;-72
2022/10/18 10:13:16;;;;;;;9.15;6.03;;;23.00;99.90;;;;;;5028440;28;20067;-72
2022/10/18 10:15:56;;;;;;;10.35;5.55;;;22.70;99.90;;;;;;5009204;28;20080;-71
2022/10/18 10:18:33;;;;;;;11.15;5.63;;;22.60;99.90;;;;;;5028711;28;20116;-72
2022/10/18 10:21:06;;;;;;;10.02;5.72;;;22.60;99.90;;;;;;5025633;28;20512;-72
2022/10/18 10:23:43;;;;;;;11.00;6.03;;;22.70;99.90;;;;;;5017261;28;20048;-72
2022/10/18 10:26:26;;;;;;;9.60;6.43;;;22.50;99.90;;;;;;5025635;28;20132;-72
2022/10/18 10:28:54;;;;;;;14.57;5.97;;;22.30;99.90;;;;;;5021768;28;20484;-72
2022/10/18 10:31:28;;;;;;;9.50;6.53;;;22.50;99.90;;;;;;5007823;28;20049;-72
2022/10/18 10:34:00;;;;;;;11.50;6.40;;;22.40;99.90;;;;;;5013408;28;20057;-74
2022/10/18 10:36:28;;;;;;;;;;;22.30;99.90;;;;;;5043593;28;20042;-72
2022/10/18 10:39:25;;;;;;;9.57;6.72;;;22.10;99.90;;;;;;5029329;28;19963;-72
2022/10/18 10:41:58;;;;;;;10.57;6.63;;;21.80;99.90;;;;;;5016280;28;20042;-72
2022/10/18 10:44:31;;;;;;;9.93;6.65;;;21.60;99.90;;;;;;5041613;28;20566;-73
2022/10/18 10:46:58;;;;;;;8.23;6.03;;;21.40;99.90;;;;;;5031334;28;20034;-71
2022/10/18 10:49:43;;;;;;;8.40;5.30;;;21.30;99.90;;;;;;5032580;28;20054;-71
2022/10/18 10:52:26;;;;;;;10.05;5.22;;;20.80;99.90;;;;;;5037244;28;20049;-73
2022/10/18 10:54:56;;;;;;;10.73;5.75;;;20.40;99.90;;;;;;5038760;28;20046;-73
2022/10/18 10:57:49;;;;;;;11.88;5.45;;;20.10;99.90;;;;;;5030775;28;20453;-72
2022/10/18 11:00:44;;;;;;;6.57;5.05;;;20.00;99.90;;;;;;5031681;28;20124;-73
2022/10/18 11:03:19;;;;;;;9.15;5.30;;;19.80;99.90;;;;;;5025289;28;20144;-73
2022/10/18 11:05:59;;;;;;;8.13;4.82;;;19.70;99.90;;;;;;5034912;28;20048;-72
2022/10/18 11:08:39;;;;;;;9.00;5.35;;;19.60;99.90;;;;;;5030265;28;20041;-74
2022/10/18 11:11:21;;;;;;;7.85;5.07;;;19.60;99.90;;;;;;5032576;28;20052;-73
2022/10/18 11:13:57;;;;;;;11.15;5.13;;;19.50;99.90;;;;;;5032229;28;20081;-72
2022/10/18 11:16:53;;;;;;;9.18;4.88;;;19.30;99.90;;;;;;5033514;28;20033;-73
2022/10/18 11:19:51;;;;;;;10.23;5.43;;;19.40;99.90;;;;;;5045919;28;20185;-73
2022/10/18 11:22:23;;;;;;;9.15;4.97;;;19.40;99.90;;;;;;5033211;28;20048;-72
2022/10/18 11:24:50;;;;;;;8.23;4.85;;;19.30;99.90;;;;;;5012921;28;20509;-73
2022/10/18 11:27:32;;;;;;;11.10;5.10;;;19.30;99.90;;;;;;5033209;28;20075;-72
2022/10/18 11:30:05;;;;;;;8.05;5.03;;;19.20;99.90;;;;;;5031116;28;20052;-72
2022/10/18 11:32:50;;;;;;;10.50;5.22;;;19.00;99.90;;;;;;5030446;28;20542;-72
2022/10/18 11:35:25;;;;;;;8.45;5.25;;;18.90;99.90;;;;;;5037996;28;20050;-73
2022/10/18 11:37:55;;;;;;;9.55;5.65;;;18.80;99.90;;;;;;5026918;28;20053;-74
2022/10/18 11:40:35;;;;;;;9.15;4.78;;;18.80;99.90;;;;;;5042773;28;20037;-74
2022/10/18 11:43:29;;;;;;;8.95;5.53;;;18.60;99.90;;;;;;5028448;28;20042;-73
2022/10/18 11:46:16;;;;;;;12.98;6.72;;;18.40;99.90;;;;;;5038306;28;20076;-73
2022/10/18 11:49:00;;;;;;;9.63;5.50;;;18.50;99.90;;;;;;5013801;28;20041;-73
2022/10/18 11:51:48;;;;;;;8.27;5.20;;;18.50;99.90;;;;;;5029304;28;20065;-73
2022/10/18 11:54:49;;;;;;;8.85;4.80;;;18.50;99.90;;;;;;5027140;28;20518;-73
2022/10/18 11:57:29;;;;;;;9.77;4.80;;;18.50;99.90;;;;;;5024762;28;20053;-71
2022/10/18 12:00:25;;;;;;;9.20;4.82;;;18.50;99.90;;;;;;5018960;28;20042;-72
2022/10/18 12:03:06;;;;;;;9.85;4.82;;;18.50;99.90;;;;;;5029168;28;20044;-71
2022/10/18 12:05:37;;;;;;;8.18;4.90;;;18.60;99.90;;;;;;5028796;28;20063;-71
2022/10/18 12:08:36;;;;;;;9.15;4.72;;;18.50;99.90;;;;;;5024791;28;20049;-72
2022/10/18 12:11:39;;;;;;;10.63;5.32;;;18.60;99.90;;;;;;5032701;28;20073;-72
2022/10/18 12:14:36;;;;;;;10.35;4.53;;;18.60;99.90;;;;;;5030229;28;20038;-72
2022/10/18 12:17:11;;;;;;;8.38;4.60;;;18.50;99.90;;;;;;5024825;28;20041;-72
2022/10/18 12:20:05;;;;;;;11.50;5.18;;;18.60;99.90;;;;;;5043259;28;20045;-72
2022/10/18 12:22:48;;;;;;;10.27;5.70;;;18.50;99.90;;;;;;5027734;28;20065;-72
2022/10/18 12:25:17;;;;;;;11.30;6.05;;;18.50;99.90;;;;;;5030244;28;20465;-72
2022/10/18 12:27:53;;;;;;;10.98;5.03;;;18.70;99.90;;;;;;5023622;28;20045;-72
2022/10/18 12:30:41;;;;;;;14.90;5.10;;;19.10;99.90;;;;;;5028182;28;20533;-72
2022/10/18 12:33:17;;;;;;;10.75;4.85;;;19.40;99.90;;;;;;5028378;28;20049;-72
2022/10/18 12:36:21;;;;;;;10.20;5.03;;;19.60;99.90;;;;;;5041284;28;20452;-71
2022/10/18 12:39:05;;;;;;;13.68;5.80;;;19.50;99.90;;;;;;5039960;28;20042;-71
2022/10/18 12:41:34;;;;;;;10.38;5.00;;;19.40;99.90;;;;;;5030182;28;20034;-72
2022/10/18 12:44:27;;;;;;;9.70;5.43;;;19.30;99.90;;;;;;5017360;28;20050;-72
2022/10/18 12:46:58;;;;;;;8.23;4.95;;;19.20;99.90;;;;;;5022821;28;20050;-71
2022/10/18 12:49:32;;;;;;;8.00;5.10;;;19.00;99.90;;;;;;5000605;28;20384;-73
2022/10/18 12:52:04;;;;;;;11.60;5.60;;;19.00;99.90;;;;;;5012721;28;20056;-73
2022/10/18 12:54:34;;;;;;;9.32;5.07;;;18.80;99.90;;;;;;5015867;28;20037;-73
2022/10/18 12:57:04;;;;;;;9.63;4.88;;;18.70;99.90;;;;;;5026612;28;20091;-72
2022/10/18 12:59:31;;;;;;;9.27;5.55;;;18.60;99.90;;;;;;5027756;28;20488;-72
2022/10/18 13:01:58;;;;;;;10.93;5.60;;;18.60;99.90;;;;;;5019846;28;20377;-72
2022/10/18 13:04:26;;;;;;;9.70;5.15;;;18.60;99.90;;;;;;5020060;28;20042;-72
2022/10/18 13:06:56;;;;;;;12.60;5.80;;;18.70;99.90;;;;;;5017076;28;20034;-73
2022/10/18 13:10:05;;;;;;;10.45;5.20;;;18.60;99.90;;;;;;5030304;28;20060;-72